Time;durP1;ratioP1;P1;durP2;ratioP2;P2;SDS_P1;SDS_P2;PMS_P1;PMS_P2;Temp;Humidity;BMP_temperature;BMP_pressure;BME280_temperature;BME280_humidity;BME280_pressure;Samples;Min_cycle;Max_cycle;Signal;HPM_P1;HPM_P2
2022/12/12 00:00:03;;;;;;;23.85;13.88;;;-0.70;99.90;;;;;;5116533;28;20201;-84
2022/12/12 00:02:41;;;;;;;24.50;12.93;;;;;;;;;;5107773;28;20256;-85
2022/12/12 00:05:10;;;;;;;22.88;12.65;;;-0.40;1.00;;;;;;5125905;22;20233;-82
2022/12/12 00:07:38;;;;;;;25.48;12.98;;;-0.40;99.90;;;;;;5106785;28;20201;-83
2022/12/12 00:10:05;;;;;;;28.10;12.63;;;-0.50;99.90;;;;;;5106970;28;20201;-83
2022/12/12 00:12:32;;;;;;;24.15;13.48;;;-0.50;99.90;;;;;;5107482;28;20620;-83
2022/12/12 00:14:59;;;;;;;22.73;13.63;;;-0.80;99.90;;;;;;5099749;28;20316;-83
2022/12/12 00:17:26;;;;;;;21.85;12.70;;;-2.20;99.90;;;;;;5113966;28;20239;-84
2022/12/12 00:19:53;;;;;;;28.67;13.23;;;-0.20;99.90;;;;;;5109744;28;20283;-84
2022/12/12 00:22:19;;;;;;;26.65;16.20;;;-0.50;99.90;;;;;;5105370;28;20570;-84
2022/12/12 00:24:48;;;;;;;27.88;13.77;;;-0.60;99.90;;;;;;5105699;28;20225;-84
2022/12/12 00:27:15;;;;;;;31.00;14.07;;;-1.00;99.90;;;;;;5107068;28;20225;-84
2022/12/12 00:29:42;;;;;;;24.55;15.40;;;;;;;;;;5107343;28;20668;-84
2022/12/12 00:32:09;;;;;;;26.58;14.60;;;;;;;;;;5108776;28;20239;-84
2022/12/12 00:34:36;;;;;;;30.88;14.48;;;-1.00;1.00;;;;;;5111797;28;20307;-84
2022/12/12 00:37:03;;;;;;;28.85;14.75;;;-1.00;1.00;;;;;;5111418;28;20224;-84
2022/12/12 00:39:30;;;;;;;31.88;14.02;;;;;;;;;;5110697;28;20209;-83
2022/12/12 00:41:58;;;;;;;31.02;14.45;;;-0.70;99.90;;;;;;5102754;28;20198;-83
2022/12/12 00:44:25;;;;;;;38.72;15.73;;;-0.60;99.90;;;;;;5098575;28;20362;-83
2022/12/12 00:46:51;;;;;;;30.73;15.88;;;-0.60;1.00;;;;;;5098977;28;20217;-83
2022/12/12 00:49:20;;;;;;;23.63;14.75;;;-0.70;99.90;;;;;;5101974;28;20227;-83
2022/12/12 00:51:46;;;;;;;30.90;15.90;;;-0.60;99.90;;;;;;5102860;28;20236;-84
2022/12/12 00:54:14;;;;;;;26.08;13.43;;;;;;;;;;5103072;28;20215;-84
2022/12/12 00:56:41;;;;;;;25.90;13.50;;;-0.70;1.00;;;;;;5103754;28;20201;-84
2022/12/12 00:59:09;;;;;;;24.65;12.95;;;-0.90;99.90;;;;;;5105312;28;20285;-83
2022/12/12 01:01:36;;;;;;;32.30;14.98;;;-0.60;1.00;;;;;;5103789;28;20586;-83
2022/12/12 01:04:03;;;;;;;26.85;13.40;;;-0.80;1.00;;;;;;5105241;28;20209;-84
2022/12/12 01:06:31;;;;;;;24.75;12.52;;;-0.80;99.90;;;;;;5105052;28;20222;-83
2022/12/12 01:08:58;;;;;;;26.10;12.98;;;-0.70;1.00;;;;;;5105910;28;20615;-84
2022/12/12 01:11:26;;;;;;;29.05;13.70;;;-1.00;1.00;;;;;;5105674;28;20236;-83
2022/12/12 01:13:54;;;;;;;23.10;12.88;;;-1.10;1.00;;;;;;5106487;28;20682;-83
2022/12/12 01:16:23;;;;;;;32.88;12.50;;;-0.60;1.00;;;;;;5113538;28;20231;-82
2022/12/12 01:18:50;;;;;;;29.48;12.75;;;-0.80;1.00;;;;;;5113637;28;20209;-83
2022/12/12 01:21:19;;;;;;;26.58;13.88;;;-1.00;1.00;;;;;;5111963;28;20268;-83
2022/12/12 01:23:46;;;;;;;23.20;11.68;;;-0.50;1.00;;;;;;5112613;28;20214;-83
2022/12/12 01:26:15;;;;;;;19.75;10.85;;;-0.70;1.00;;;;;;5110864;28;20633;-83
2022/12/12 01:28:42;;;;;;;29.08;14.00;;;-1.00;1.00;;;;;;5112711;28;20200;-83
2022/12/12 01:31:09;;;;;;;26.75;13.20;;;-0.80;1.00;;;;;;5113186;28;20777;-83
2022/12/12 01:33:38;;;;;;;28.42;12.77;;;-0.80;1.00;;;;;;5113662;28;20208;-83
2022/12/12 01:36:06;;;;;;;24.35;11.50;;;-1.00;1.00;;;;;;5113691;28;20232;-83
2022/12/12 01:38:33;;;;;;;24.65;12.02;;;-0.60;1.00;;;;;;5113006;28;20238;-83
2022/12/12 01:41:00;;;;;;;28.52;12.90;;;-0.90;1.00;;;;;;5109811;28;20227;-84
2022/12/12 01:43:29;;;;;;;27.55;13.18;;;-0.90;1.00;;;;;;5113365;28;20215;-82
2022/12/12 01:46:34;;;;;;;21.25;11.50;;;-0.70;1.00;;;;;;5118970;28;20237;-81
2022/12/12 01:49:08;;;;;;;25.90;11.70;;;-1.00;1.00;;;;;;5118848;28;20196;-81
2022/12/12 01:51:36;;;;;;;29.33;14.13;;;-0.80;1.00;;;;;;5100902;28;20532;-83
2022/12/12 01:54:09;;;;;;;23.35;13.52;;;-1.10;1.00;;;;;;5112541;28;20231;-83
2022/12/12 01:56:37;;;;;;;33.03;15.35;;;-0.90;1.00;;;;;;5107782;28;20563;-83
2022/12/12 01:59:06;;;;;;;31.63;13.57;;;-0.80;1.00;;;;;;5100383;28;20298;-83
2022/12/12 02:01:34;;;;;;;27.58;13.90;;;-0.80;1.00;;;;;;5101843;28;20220;-83
2022/12/12 02:04:03;;;;;;;29.40;14.32;;;-0.90;1.00;;;;;;5105873;28;20734;-83
2022/12/12 02:06:31;;;;;;;29.38;12.38;;;-0.60;1.00;;;;;;5103663;28;20236;-83
2022/12/12 02:09:01;;;;;;;27.98;12.70;;;-0.70;1.00;;;;;;5100820;28;20574;-83
2022/12/12 02:11:29;;;;;;;25.23;13.52;;;-0.80;1.00;;;;;;5101919;28;20189;-83
2022/12/12 02:13:57;;;;;;;30.38;11.93;;;-0.40;1.00;;;;;;5102003;28;20288;-82
2022/12/12 02:16:39;;;;;;;23.77;10.70;;;-0.60;1.00;;;;;;5102137;28;20296;-83
2022/12/12 02:19:29;;;;;;;25.42;13.43;;;-1.00;1.00;;;;;;5102842;28;20189;-83
2022/12/12 02:22:02;;;;;;;26.38;11.85;;;-0.80;1.00;;;;;;5103071;28;20279;-83
2022/12/12 02:24:47;;;;;;;23.55;11.75;;;-1.40;1.00;;;;;;5104253;28;20692;-82
2022/12/12 02:27:40;;;;;;;20.73;11.82;;;-0.60;1.00;;;;;;5104278;28;20296;-84
2022/12/12 02:30:28;;;;;;;20.55;11.35;;;-0.60;1.00;;;;;;5104859;28;20552;-84
2022/12/12 02:33:11;;;;;;;20.88;11.10;;;-0.60;1.00;;;;;;5105430;28;20220;-82
2022/12/12 02:35:48;;;;;;;25.52;11.40;;;-0.30;1.00;;;;;;5102530;28;20715;-82
2022/12/12 02:38:27;;;;;;;31.13;12.57;;;-0.80;1.00;;;;;;5108737;28;20190;-84
2022/12/12 02:41:03;;;;;;;26.70;11.65;;;-0.60;1.00;;;;;;5107694;28;20232;-83
2022/12/12 02:43:38;;;;;;;25.27;12.57;;;-0.50;1.00;;;;;;5107345;28;20276;-84
2022/12/12 02:46:11;;;;;;;27.10;13.75;;;-0.60;1.00;;;;;;5108042;28;20251;-84
2022/12/12 02:48:45;;;;;;;21.48;10.30;;;-0.60;1.00;;;;;;5107139;28;20196;-84
2022/12/12 02:51:15;;;;;;;25.45;12.27;;;-0.40;1.00;;;;;;5107584;28;20200;-83
2022/12/12 02:53:42;;;;;;;26.50;12.30;;;-0.80;1.00;;;;;;5108249;28;20268;-82
2022/12/12 02:56:43;;;;;;;31.00;13.90;;;-0.70;1.00;;;;;;5111890;28;20774;-83
2022/12/12 02:59:12;;;;;;;26.75;11.98;;;-0.30;1.00;;;;;;5111688;28;20215;-83
2022/12/12 03:01:49;;;;;;;28.92;12.25;;;-0.10;1.00;;;;;;5109493;28;20572;-83
2022/12/12 03:10:08;;;;;;;26.70;12.05;;;-0.50;1.00;;;;;;5105039;28;20192;-82
2022/12/12 03:12:44;;;;;;;17.58;10.50;;;-0.50;1.00;;;;;;5105183;28;20223;-82
2022/12/12 03:15:16;;;;;;;37.85;13.10;;;-1.10;1.00;;;;;;5107780;28;20235;-82
2022/12/12 03:17:49;;;;;;;31.58;12.75;;;-1.00;15.20;;;;;;5120806;28;20186;-82
2022/12/12 03:20:24;;;;;;;30.00;12.15;;;-0.30;14.20;;;;;;5121298;28;20253;-81
2022/12/12 03:22:54;;;;;;;32.05;11.40;;;-0.30;36.50;;;;;;5110613;28;20638;-82
2022/12/12 03:25:29;;;;;;;34.65;14.30;;;-0.50;35.80;;;;;;5116526;28;20223;-82
2022/12/12 03:28:02;;;;;;;31.92;15.35;;;-0.60;1.00;;;;;;5120352;28;20275;-82
2022/12/12 03:30:32;;;;;;;29.80;11.93;;;-0.40;29.60;;;;;;5119827;28;20184;-82
2022/12/12 03:33:02;;;;;;;29.65;13.68;;;-0.50;1.00;;;;;;5118861;28;20632;-82
2022/12/12 03:35:36;;;;;;;25.33;12.52;;;-0.30;1.00;;;;;;5120921;28;20227;-81
2022/12/12 03:38:09;;;;;;;40.15;15.93;;;-0.40;33.30;;;;;;5120163;28;20177;-82
2022/12/12 03:40:41;;;;;;;25.88;12.10;;;-0.30;14.50;;;;;;5120466;28;20213;-81
2022/12/12 03:43:11;;;;;;;32.63;15.25;;;-0.50;19.00;;;;;;5113128;28;20186;-82
2022/12/12 03:45:45;;;;;;;31.17;13.52;;;-0.20;55.40;;;;;;5104847;28;20225;-83
2022/12/12 03:48:18;;;;;;;28.15;12.20;;;-0.20;43.80;;;;;;5103639;28;20212;-83
2022/12/12 03:50:52;;;;;;;24.48;13.27;;;-0.30;58.30;;;;;;5102931;28;20216;-83
2022/12/12 03:53:25;;;;;;;24.38;12.85;;;0.00;75.00;;;;;;5103014;28;20219;-83
2022/12/12 03:55:56;;;;;;;27.85;13.55;;;-0.50;9.90;;;;;;5103126;28;20256;-82
2022/12/12 03:58:28;;;;;;;28.48;12.13;;;0.20;44.40;;;;;;5114715;28;20206;-82
2022/12/12 04:00:57;;;;;;;27.95;13.68;;;-0.10;51.00;;;;;;5110890;28;20217;-82
2022/12/12 04:03:29;;;;;;;29.25;14.20;;;-1.30;1.00;;;;;;5103020;28;20296;-83
2022/12/12 04:14:43;;;;;;;25.52;9.50;;;-0.20;96.60;;;;;;5101805;28;20248;-82
2022/12/12 04:17:15;;;;;;;19.40;10.38;;;0.10;75.00;;;;;;5102080;28;20185;-84
2022/12/12 04:26:37;;;;;;;24.65;11.23;;;0.00;99.90;;;;;;5106764;28;20221;-83
2022/12/12 04:28:26;;;;;;;21.23;10.80;;;-0.20;84.60;;;;;;5105155;28;20228;-84
2022/12/12 04:30:53;;;;;;;23.60;12.05;;;-0.10;99.90;;;;;;5105736;28;20202;-84
2022/12/12 04:33:23;;;;;;;23.63;13.32;;;0.00;1.00;;;;;;5106411;28;20304;-85
2022/12/12 04:35:52;;;;;;;20.40;10.32;;;0.10;99.90;;;;;;5104940;28;20308;-83
2022/12/12 04:38:23;;;;;;;29.10;13.75;;;-0.30;99.90;;;;;;5102297;28;20208;-83
2022/12/12 04:40:54;;;;;;;28.27;12.93;;;0.00;16.80;;;;;;5102401;28;20228;-83
2022/12/12 04:43:25;;;;;;;27.92;14.20;;;0.20;21.40;;;;;;5104305;28;20273;-83
2022/12/12 04:45:54;;;;;;;26.52;12.85;;;0.10;99.90;;;;;;5104549;28;20249;-84
2022/12/12 04:48:27;;;;;;;27.17;12.40;;;0.10;99.90;;;;;;5104200;28;20312;-84
2022/12/12 04:50:55;;;;;;;24.83;12.63;;;0.30;99.90;;;;;;5104426;28;20272;-83
2022/12/12 04:53:29;;;;;;;23.48;13.30;;;0.10;26.50;;;;;;5103966;28;20233;-83
2022/12/12 04:55:59;;;;;;;22.98;11.70;;;-0.10;74.80;;;;;;5104295;28;20252;-83
2022/12/12 04:58:27;;;;;;;26.95;12.35;;;-0.20;70.70;;;;;;5107332;28;20186;-82
2022/12/12 05:00:59;;;;;;;23.63;11.82;;;-0.20;48.50;;;;;;5104470;28;20213;-83
2022/12/12 05:03:33;;;;;;;24.52;11.70;;;-0.10;79.30;;;;;;5103088;28;20564;-84
2022/12/12 05:06:06;;;;;;;26.85;12.75;;;0.10;1.00;;;;;;5102674;28;20253;-84
2022/12/12 05:08:38;;;;;;;23.25;12.02;;;0.00;92.40;;;;;;5102630;28;20241;-84
2022/12/12 05:11:06;;;;;;;20.65;10.82;;;0.00;56.70;;;;;;5103569;28;20194;-84
2022/12/12 05:13:35;;;;;;;24.67;12.77;;;0.20;70.80;;;;;;5104165;28;20208;-84
2022/12/12 05:16:10;;;;;;;20.15;11.40;;;0.00;90.80;;;;;;5108663;28;20241;-84
2022/12/12 05:18:36;;;;;;;21.70;9.88;;;0.30;29.00;;;;;;5117452;28;20195;-84
2022/12/12 05:21:04;;;;;;;22.33;13.07;;;0.10;64.80;;;;;;5118840;28;20186;-83
2022/12/12 05:23:30;;;;;;;19.98;11.10;;;0.10;1.00;;;;;;5110247;28;20233;-83
2022/12/12 05:25:59;;;;;;;23.38;9.48;;;0.40;18.20;;;;;;5101302;28;20230;-84
2022/12/12 05:28:25;;;;;;;15.13;8.73;;;0.10;30.70;;;;;;5100571;28;20316;-83
2022/12/12 05:30:52;;;;;;;16.55;9.20;;;-0.10;1.00;;;;;;5101976;28;20211;-83
2022/12/12 05:33:19;;;;;;;16.17;9.10;;;0.10;1.00;;;;;;5101959;28;20582;-84
2022/12/12 05:35:46;;;;;;;20.60;9.88;;;0.40;1.00;;;;;;5100677;28;20252;-84
2022/12/12 05:38:13;;;;;;;9.90;6.90;;;-0.20;1.00;;;;;;5102081;28;20284;-84
2022/12/12 05:40:39;;;;;;;16.33;7.82;;;0.70;1.00;;;;;;5102795;28;20205;-83
2022/12/12 05:43:08;;;;;;;10.63;6.80;;;0.50;1.00;;;;;;5103281;28;20314;-84
2022/12/12 05:45:35;;;;;;;12.20;7.38;;;0.40;1.00;;;;;;5103101;28;20237;-84
2022/12/12 05:48:02;;;;;;;9.88;6.75;;;;;;;;;;5102013;28;20266;-84
2022/12/12 05:50:29;;;;;;;19.45;7.20;;;0.40;1.00;;;;;;5102347;28;20206;-84
2022/12/12 05:52:56;;;;;;;11.35;6.70;;;0.10;1.00;;;;;;5101980;28;20208;-84
2022/12/12 05:55:23;;;;;;;10.60;6.53;;;0.40;1.00;;;;;;5101993;28;20526;-83
2022/12/12 05:57:50;;;;;;;14.68;6.57;;;0.30;1.00;;;;;;5101879;28;20228;-84
2022/12/12 06:00:18;;;;;;;12.48;6.88;;;0.20;1.00;;;;;;5101840;28;20622;-83
2022/12/12 06:02:45;;;;;;;9.77;6.68;;;-0.10;1.00;;;;;;5109982;28;20215;-84
2022/12/12 06:27:30;;;;;;;11.43;6.90;;;0.30;1.00;;;;;;5086678;28;20225;-86
2022/12/12 06:33:56;;;;;;;10.52;5.68;;;0.40;1.00;;;;;;5044175;28;20237;-86
2022/12/12 06:36:37;;;;;;;11.02;7.47;;;;;;;;;;5104020;28;20245;-85
2022/12/12 06:39:30;;;;;;;7.93;6.30;;;;;;;;;;5103750;28;20678;-86
2022/12/12 06:42:13;;;;;;;5.97;5.45;;;;;;;;;;5103511;28;20260;-84
2022/12/12 06:44:57;;;;;;;13.93;6.22;;;;;;;;;;5102917;28;20567;-84
2022/12/12 06:47:29;;;;;;;9.43;5.40;;;;;;;;;;5101945;28;20229;-86
2022/12/12 06:50:13;;;;;;;11.35;6.40;;;;;;;;;;5102625;28;20206;-85
2022/12/12 06:52:58;;;;;;;9.98;6.05;;;;;;;;;;5103185;28;20301;-85
2022/12/12 07:01:44;;;;;;;11.70;6.90;;;;;;;;;;5104492;28;20193;-84
2022/12/12 07:04:14;;;;;;;9.10;6.63;;;;;;;;;;5104965;28;20197;-85
2022/12/12 07:06:45;;;;;;;10.40;6.88;;;;;;;;;;5103789;28;20224;-85
2022/12/12 07:09:20;;;;;;;10.02;6.90;;;;;;;;;;5106897;28;20206;-87
2022/12/12 07:12:07;;;;;;;9.32;6.55;;;0.30;1.00;;;;;;5105450;28;20196;-86
2022/12/12 07:14:54;;;;;;;9.55;6.40;;;;;;;;;;5082966;28;20208;-86
2022/12/12 07:34:29;;;;;;;8.65;6.65;;;;;;;;;;4922520;29;20208;-83
2022/12/12 07:47:16;;;;;;;6.95;5.97;;;0.20;99.90;;;;;;4916523;29;20231;-87
2022/12/12 08:36:24;;;;;;;6.75;5.53;;;;;;;;;;4971001;28;20218;-84
2022/12/12 08:39:26;;;;;;;14.23;7.53;;;0.20;99.90;;;;;;4964217;28;20216;-82
2022/12/12 08:42:54;;;;;;;10.50;7.18;;;0.30;99.90;;;;;;4975181;28;20236;-84
2022/12/12 08:52:04;;;;;;;6.32;5.75;;;;;;;;;;5131667;28;20211;-83
2022/12/12 08:55:00;;;;;;;5.55;4.25;;;;;;;;;;5122470;28;20204;-84
2022/12/12 08:57:41;;;;;;;7.65;5.63;;;;;;;;;;5101634;28;20213;-84
2022/12/12 09:00:10;;;;;;;7.40;5.60;;;0.00;99.90;;;;;;5140663;22;20221;-83
2022/12/12 09:02:36;;;;;;;7.65;6.15;;;0.20;87.70;;;;;;5110601;28;20203;-83
2022/12/12 09:05:04;;;;;;;9.23;6.45;;;0.10;99.90;;;;;;5109953;28;20237;-84
2022/12/12 09:07:31;;;;;;;9.75;7.05;;;1.20;99.90;;;;;;5110819;28;20212;-83
2022/12/12 09:09:59;;;;;;;6.28;5.18;;;0.30;99.90;;;;;;5106149;28;20307;-84
2022/12/12 09:12:26;;;;;;;5.35;4.85;;;0.50;63.40;;;;;;5089510;28;20206;-84
2022/12/12 09:14:52;;;;;;;7.18;6.15;;;0.30;1.00;;;;;;5093277;28;20257;-83
2022/12/12 09:17:19;;;;;;;7.35;5.82;;;0.40;1.00;;;;;;5096241;28;20265;-82
2022/12/12 09:19:46;;;;;;;9.63;6.05;;;0.20;1.00;;;;;;5096899;28;20206;-82
2022/12/12 09:22:13;;;;;;;7.55;5.80;;;;;;;;;;5094713;28;20210;-83
2022/12/12 09:24:40;;;;;;;8.35;5.55;;;0.10;1.00;;;;;;5091419;28;20292;-83
2022/12/12 09:27:09;;;;;;;8.40;5.30;;;0.20;1.00;;;;;;5090277;28;20206;-83
2022/12/12 09:29:35;;;;;;;9.65;7.03;;;0.30;1.00;;;;;;5088887;28;20251;-84
2022/12/12 09:32:05;;;;;;;8.75;5.60;;;0.20;1.00;;;;;;5090658;28;20222;-84
2022/12/12 09:34:32;;;;;;;7.40;5.10;;;0.40;1.00;;;;;;5088842;28;20252;-84
2022/12/12 09:36:59;;;;;;;7.00;5.82;;;0.00;1.00;;;;;;5088257;28;20229;-84
2022/12/12 09:39:26;;;;;;;7.80;6.30;;;0.90;1.00;;;;;;5087430;28;20261;-83
2022/12/12 09:41:53;;;;;;;8.48;6.38;;;0.70;1.00;;;;;;5087062;28;20230;-83
2022/12/12 09:44:22;;;;;;;6.68;5.50;;;0.20;1.00;;;;;;5087760;28;20377;-84
2022/12/12 09:46:50;;;;;;;6.72;6.00;;;0.70;1.00;;;;;;5088844;28;20285;-83
2022/12/12 09:49:27;;;;;;;7.93;5.07;;;0.20;1.00;;;;;;5089116;28;20221;-84
2022/12/12 09:51:55;;;;;;;9.45;6.40;;;0.10;1.00;;;;;;5088106;28;20232;-85
2022/12/12 09:54:25;;;;;;;5.78;5.22;;;0.40;1.00;;;;;;5088231;28;20236;-85
2022/12/12 09:57:13;;;;;;;12.25;8.07;;;0.00;1.00;;;;;;5088469;28;20193;-83
2022/12/12 09:59:47;;;;;;;8.90;5.55;;;0.20;1.00;;;;;;5088252;28;20281;-83
2022/12/12 10:02:37;;;;;;;7.60;5.55;;;0.00;1.00;;;;;;5088451;28;20637;-84
2022/12/12 10:05:17;;;;;;;6.25;5.63;;;0.20;1.00;;;;;;5109398;28;20190;-84
2022/12/12 10:07:52;;;;;;;11.18;7.15;;;0.10;1.00;;;;;;5109099;28;20215;-84
2022/12/12 10:20:29;;;;;;;5.80;4.28;;;-0.10;1.00;;;;;;5114048;28;20233;-83
2022/12/12 10:23:02;;;;;;;6.30;4.35;;;0.10;1.00;;;;;;5110026;28;20215;-84
2022/12/12 10:25:41;;;;;;;5.55;4.70;;;0.30;1.00;;;;;;5108291;28;20193;-84
2022/12/12 10:28:11;;;;;;;8.60;4.25;;;0.10;99.90;;;;;;5108133;28;20208;-82
2022/12/12 10:30:50;;;;;;;4.07;3.67;;;0.00;99.90;;;;;;5110517;28;20222;-83
2022/12/12 10:33:27;;;;;;;4.93;4.40;;;0.00;99.90;;;;;;5109105;28;20246;-83
2022/12/12 10:36:05;;;;;;;6.40;4.60;;;0.20;99.90;;;;;;5108863;28;20186;-84
2022/12/12 10:38:50;;;;;;;4.53;3.28;;;0.20;99.90;;;;;;5108169;28;20186;-84
2022/12/12 10:41:24;;;;;;;5.25;4.00;;;-0.10;22.90;;;;;;5107847;28;20284;-84
2022/12/12 10:44:02;;;;;;;7.95;4.95;;;0.10;99.90;;;;;;5107901;28;20212;-83
2022/12/12 10:46:36;;;;;;;7.13;4.50;;;0.20;1.00;;;;;;5108831;28;20193;-83
2022/12/12 10:49:13;;;;;;;7.75;4.82;;;-0.20;99.90;;;;;;5109157;28;20213;-84
2022/12/12 10:51:43;;;;;;;7.55;5.13;;;0.30;97.40;;;;;;5109072;28;20296;-84
2022/12/12 10:54:17;;;;;;;12.77;7.90;;;0.10;99.90;;;;;;5108187;28;20223;-84
2022/12/12 10:57:08;;;;;;;6.63;5.50;;;-0.10;99.90;;;;;;5108936;28;20275;-84
2022/12/12 10:59:44;;;;;;;4.70;3.83;;;-0.40;99.90;;;;;;5111930;28;20196;-84
2022/12/12 11:02:30;;;;;;;5.40;4.93;;;0.20;3.30;;;;;;5119243;28;20188;-83
2022/12/12 11:05:05;;;;;;;5.78;4.55;;;0.30;99.90;;;;;;5121445;28;20220;-82
2022/12/12 11:07:37;;;;;;;4.90;4.30;;;0.10;2.50;;;;;;5121992;28;20239;-82
2022/12/12 11:10:14;;;;;;;6.88;4.40;;;0.00;1.00;;;;;;5117459;28;20264;-82
2022/12/12 11:12:41;;;;;;;5.75;4.45;;;;;;;;;;5114576;28;20213;-84
2022/12/12 11:15:17;;;;;;;4.63;4.22;;;0.00;1.00;;;;;;5117865;28;20229;-84
2022/12/12 11:17:44;;;;;;;4.10;3.70;;;0.00;1.00;;;;;;5118179;28;20218;-84
2022/12/12 11:20:19;;;;;;;5.43;4.90;;;-0.10;99.90;;;;;;5112667;28;20251;-84
2022/12/12 11:22:50;;;;;;;4.75;4.28;;;-0.40;1.00;;;;;;5108289;28;20185;-84
2022/12/12 11:25:27;;;;;;;6.90;4.97;;;0.10;1.00;;;;;;5106787;28;20198;-83
2022/12/12 11:27:54;;;;;;;6.85;5.57;;;0.10;1.00;;;;;;5108160;28;20208;-84
2022/12/12 11:30:32;;;;;;;5.72;5.20;;;0.10;1.00;;;;;;5107289;28;20240;-84
2022/12/12 11:32:59;;;;;;;9.30;5.97;;;-0.10;99.90;;;;;;5107143;28;20554;-84
2022/12/12 11:35:31;;;;;;;9.40;6.43;;;-0.10;23.30;;;;;;5105287;28;20212;-84
2022/12/12 11:38:02;;;;;;;7.65;6.30;;;0.20;99.90;;;;;;5111057;28;20217;-84
2022/12/12 11:40:31;;;;;;;7.65;5.97;;;0.00;99.90;;;;;;5109868;28;20249;-84
2022/12/12 11:43:15;;;;;;;7.28;6.45;;;-0.10;94.50;;;;;;5108789;28;20307;-84
2022/12/12 11:45:42;;;;;;;7.35;6.50;;;0.00;99.90;;;;;;5110523;28;20853;-83
2022/12/12 11:48:32;;;;;;;7.85;5.80;;;-0.10;56.00;;;;;;5110424;28;20275;-83
2022/12/12 11:51:01;;;;;;;7.82;6.75;;;-0.30;99.90;;;;;;5110119;28;20222;-84
2022/12/12 11:53:30;;;;;;;7.32;5.95;;;-0.30;1.00;;;;;;5110269;28;20235;-84
2022/12/12 11:56:13;;;;;;;8.45;6.45;;;-0.20;99.90;;;;;;5109508;28;20243;-84
2022/12/12 11:58:46;;;;;;;5.22;4.72;;;-0.20;99.90;;;;;;5109523;28;20186;-84
2022/12/12 12:01:24;;;;;;;9.40;6.28;;;-0.20;99.90;;;;;;5109436;28;20252;-83
2022/12/12 12:04:09;;;;;;;7.22;5.32;;;0.20;99.90;;;;;;5109641;28;20253;-84
2022/12/12 12:06:45;;;;;;;6.45;5.75;;;0.20;1.00;;;;;;5109232;28;20190;-84
2022/12/12 12:09:28;;;;;;;6.18;4.35;;;0.10;1.00;;;;;;5109365;28;20679;-84
2022/12/12 12:12:05;;;;;;;8.85;6.43;;;0.10;1.00;;;;;;5109388;28;20263;-84
2022/12/12 12:15:07;;;;;;;8.85;6.93;;;-0.10;1.00;;;;;;5108106;28;20190;-84
2022/12/12 12:17:51;;;;;;;13.05;7.20;;;-0.70;67.50;;;;;;5094919;28;20212;-84
2022/12/12 12:20:24;;;;;;;12.57;7.72;;;-0.60;99.90;;;;;;5108797;28;20221;-84
2022/12/12 12:23:02;;;;;;;12.68;7.43;;;-0.60;1.00;;;;;;5060686;28;20197;-84
2022/12/12 12:25:43;;;;;;;11.95;7.82;;;-0.40;99.90;;;;;;5108554;28;20231;-83
2022/12/12 12:28:46;;;;;;;15.20;8.07;;;-0.60;1.00;;;;;;5108780;28;20184;-84
2022/12/12 12:31:22;;;;;;;9.77;7.57;;;-0.50;99.90;;;;;;5083254;28;20267;-83
2022/12/12 12:34:01;;;;;;;9.10;7.90;;;-0.50;99.90;;;;;;5108315;28;20726;-83
2022/12/12 12:36:36;;;;;;;8.40;6.13;;;-0.70;99.90;;;;;;5112517;28;20644;-84
2022/12/12 12:39:09;;;;;;;13.18;8.45;;;-0.20;32.70;;;;;;5109929;28;20238;-84
2022/12/12 12:41:52;;;;;;;7.32;6.55;;;-0.30;99.90;;;;;;5109730;28;20229;-84
2022/12/12 12:44:42;;;;;;;8.35;7.22;;;-0.50;23.10;;;;;;5108622;28;20225;-84
2022/12/12 12:47:22;;;;;;;6.93;5.55;;;-0.50;1.00;;;;;;5108530;28;20190;-83
2022/12/12 12:49:53;;;;;;;7.68;6.90;;;-0.10;1.00;;;;;;5108319;28;20213;-84
2022/12/12 12:52:26;;;;;;;6.55;4.70;;;-0.20;99.90;;;;;;5108992;28;20273;-83
2022/12/12 12:54:56;;;;;;;5.65;5.10;;;-0.10;99.90;;;;;;5109302;28;20653;-84
2022/12/12 12:57:28;;;;;;;5.25;4.47;;;-0.30;99.90;;;;;;5111136;28;20265;-83
2022/12/12 12:59:59;;;;;;;6.43;4.60;;;-0.50;99.90;;;;;;5111531;28;20200;-82
2022/12/12 13:02:33;;;;;;;7.47;5.20;;;-0.30;99.90;;;;;;5112453;28;20186;-83
2022/12/12 13:05:06;;;;;;;7.57;5.07;;;-0.40;99.90;;;;;;5110299;28;20193;-83
2022/12/12 13:07:42;;;;;;;4.80;4.25;;;-0.10;99.90;;;;;;5108900;28;20200;-83
2022/12/12 13:10:18;;;;;;;6.95;5.50;;;-0.50;99.90;;;;;;5109791;28;20253;-83
2022/12/12 13:12:52;;;;;;;3.40;3.10;;;-0.10;99.90;;;;;;5119181;28;20175;-83
2022/12/12 13:15:23;;;;;;;6.32;4.60;;;-0.70;23.70;;;;;;5119542;28;20212;-82
2022/12/12 13:17:57;;;;;;;3.80;3.35;;;-0.20;99.90;;;;;;5119554;28;20196;-84
2022/12/12 13:20:25;;;;;;;7.82;4.38;;;0.30;99.90;;;;;;5118112;28;20204;-83
2022/12/12 13:23:18;;;;;;;5.88;5.05;;;-0.40;99.90;;;;;;5107964;28;20209;-84
2022/12/12 13:25:52;;;;;;;8.63;5.68;;;-0.50;99.90;;;;;;5108969;28;20261;-84
2022/12/12 13:28:28;;;;;;;5.38;4.55;;;-0.40;1.00;;;;;;5110090;28;20221;-84
2022/12/12 13:31:18;;;;;;;10.88;4.38;;;-0.60;85.80;;;;;;5109037;28;20252;-84
2022/12/12 13:33:47;;;;;;;6.07;5.28;;;-0.20;26.30;;;;;;5109894;28;20290;-84
2022/12/12 13:36:20;;;;;;;5.53;4.60;;;-0.70;99.90;;;;;;5111002;28;20238;-83
2022/12/12 13:38:50;;;;;;;5.55;4.82;;;-1.50;1.00;;;;;;5110986;28;20189;-85
2022/12/12 13:41:17;;;;;;;4.90;4.38;;;1.90;1.00;;;;;;5110907;28;20632;-83
2022/12/12 13:43:47;;;;;;;5.72;5.13;;;-0.30;1.00;;;;;;5115175;28;20201;-83
2022/12/12 13:46:40;;;;;;;8.27;6.30;;;-0.10;1.00;;;;;;5115429;28;20213;-83
2022/12/12 13:49:40;;;;;;;7.93;5.00;;;-0.70;99.90;;;;;;5115579;28;20203;-83
2022/12/12 13:52:28;;;;;;;6.18;5.10;;;-0.30;1.00;;;;;;5099149;28;20272;-85
2022/12/12 13:55:11;;;;;;;9.07;5.53;;;-0.40;99.90;;;;;;5112797;28;20288;-85
2022/12/12 13:58:17;;;;;;;5.20;4.78;;;-0.70;1.00;;;;;;5110946;28;20209;-84
2022/12/12 14:00:46;;;;;;;8.60;5.47;;;-0.50;99.90;;;;;;5111030;28;20232;-84
2022/12/12 14:03:25;;;;;;;6.25;5.15;;;-0.30;99.90;;;;;;5111578;28;20212;-84
2022/12/12 14:05:53;;;;;;;7.38;5.88;;;-0.30;99.90;;;;;;5112680;28;20189;-84
2022/12/12 14:08:26;;;;;;;9.50;5.85;;;-0.50;9.30;;;;;;5111107;28;20205;-84
2022/12/12 14:10:59;;;;;;;10.68;6.55;;;-0.30;99.90;;;;;;5113433;28;20287;-84
2022/12/12 14:13:30;;;;;;;6.00;5.35;;;-0.70;1.00;;;;;;5114004;28;20211;-84
2022/12/12 14:16:06;;;;;;;13.52;5.45;;;-0.60;70.70;;;;;;5114694;28;20231;-84
2022/12/12 14:18:38;;;;;;;8.55;6.05;;;-0.40;1.00;;;;;;5114957;28;20200;-84
2022/12/12 14:21:08;;;;;;;8.90;6.35;;;-0.40;1.00;;;;;;5113199;28;20609;-84
2022/12/12 14:23:36;;;;;;;11.55;7.75;;;-0.40;99.90;;;;;;5111378;28;20257;-84
2022/12/12 14:26:48;;;;;;;12.48;8.20;;;-0.60;99.90;;;;;;5111444;28;20211;-85
2022/12/12 14:29:24;;;;;;;8.27;7.07;;;-0.30;92.70;;;;;;5110720;28;20206;-84
2022/12/12 14:32:01;;;;;;;11.45;7.60;;;-0.60;99.90;;;;;;5113096;28;20251;-83
2022/12/12 14:34:39;;;;;;;9.50;6.72;;;-0.50;99.90;;;;;;5114738;28;20193;-83
2022/12/12 14:37:36;;;;;;;10.52;8.00;;;-0.60;99.90;;;;;;5114894;28;20192;-84
2022/12/12 14:40:12;;;;;;;12.18;8.60;;;-0.80;99.90;;;;;;5114826;28;20224;-84
2022/12/12 14:42:48;;;;;;;11.60;8.68;;;-0.50;1.00;;;;;;5114259;28;20197;-84
2022/12/12 14:45:29;;;;;;;13.25;6.75;;;-0.40;99.90;;;;;;5114965;28;20257;-83
2022/12/12 14:48:15;;;;;;;12.90;8.93;;;-0.60;1.00;;;;;;5116580;28;20190;-83
2022/12/12 14:50:47;;;;;;;14.13;8.13;;;-0.90;1.00;;;;;;5115539;28;20233;-84
2022/12/12 14:53:17;;;;;;;11.63;8.13;;;-0.70;1.00;;;;;;5114511;28;20214;-84
2022/12/12 14:55:49;;;;;;;12.55;8.30;;;-0.20;99.90;;;;;;5114045;28;20237;-85
2022/12/12 14:58:19;;;;;;;12.80;9.00;;;-0.40;99.90;;;;;;5114503;28;20229;-84
2022/12/12 15:01:03;;;;;;;13.40;8.45;;;-0.50;99.90;;;;;;5140634;22;20540;-85
2022/12/12 15:03:43;;;;;;;16.02;10.13;;;-0.50;99.90;;;;;;5135325;28;20215;-84
2022/12/12 15:07:07;;;;;;;14.93;9.57;;;-0.50;99.90;;;;;;5134986;28;20184;-85
2022/12/12 15:09:39;;;;;;;14.75;8.65;;;-0.40;99.90;;;;;;5033970;28;20228;-80
2022/12/12 15:15:05;;;;;;;15.57;8.73;;;;;;;;;;5071311;28;20216;-82
2022/12/12 15:17:46;;;;;;;13.77;8.52;;;-0.50;99.90;;;;;;5117739;28;20200;-83
2022/12/12 15:20:19;;;;;;;16.65;8.55;;;-0.60;1.00;;;;;;5102639;28;20205;-82
2022/12/12 15:22:52;;;;;;;10.45;8.00;;;-0.60;99.90;;;;;;5114320;28;20215;-83
2022/12/12 15:25:36;;;;;;;12.05;8.27;;;-0.50;99.90;;;;;;5118344;28;20189;-84
2022/12/12 15:28:08;;;;;;;9.60;7.00;;;;;;;;;;5120308;28;20192;-83
2022/12/12 15:30:50;;;;;;;11.15;7.35;;;;;;;;;;5112370;28;20259;-83
2022/12/12 15:33:24;;;;;;;9.52;7.82;;;;;;;;;;5104888;28;20579;-83
2022/12/12 15:36:04;;;;;;;10.27;7.07;;;-0.70;1.00;;;;;;5104452;28;20200;-83
2022/12/12 15:38:31;;;;;;;12.10;7.57;;;;;;;;;;5108824;28;20171;-82
2022/12/12 15:41:07;;;;;;;10.63;6.80;;;-0.80;99.90;;;;;;5109842;28;20259;-82
2022/12/12 15:43:37;;;;;;;13.38;7.45;;;;;;;;;;5105064;28;20190;-83
2022/12/12 15:46:12;;;;;;;10.30;7.55;;;;;;;;;;5115263;28;20253;-82
2022/12/12 15:48:49;;;;;;;10.70;7.68;;;;;;;;;;5115015;28;20216;-83
2022/12/12 16:03:24;;;;;;;9.93;7.75;;;-0.80;1.00;;;;;;5061056;28;20252;-82
2022/12/12 16:06:29;;;;;;;15.70;8.65;;;-0.80;1.00;;;;;;5104633;28;20209;-83
2022/12/12 16:09:19;;;;;;;11.73;7.63;;;-0.80;1.00;;;;;;5104220;28;20209;-84